sensor_id;sensor_type;location;lat;lon;timestamp;P1;durP1;ratioP1;P2;durP2;ratioP2
72891;SDS011;61032;50.782;6.818;2023-06-22T00:00:23;5.43;;;2.45;;
72891;SDS011;61032;50.782;6.818;2023-06-22T00:01:24;4.40;;;2.45;;
72891;SDS011;61032;50.782;6.818;2023-06-22T00:02:24;5.45;;;2.78;;
72891;SDS011;61032;50.782;6.818;2023-06-22T00:03:25;4.45;;;2.50;;
72891;SDS011;61032;50.782;6.818;2023-06-22T00:04:26;6.38;;;3.17;;
72891;SDS011;61032;50.782;6.818;2023-06-22T00:05:27;3.45;;;2.65;;
72891;SDS011;61032;50.782;6.818;2023-06-22T00:06:27;3.85;;;2.97;;
72891;SDS011;61032;50.782;6.818;2023-06-22T00:07:28;3.90;;;2.50;;
72891;SDS011;61032;50.782;6.818;2023-06-22T00:08:28;4.40;;;2.38;;
72891;SDS011;61032;50.782;6.818;2023-06-22T00:09:29;7.43;;;2.78;;
72891;SDS011;61032;50.782;6.818;2023-06-22T00:10:30;4.55;;;2.95;;
72891;SDS011;61032;50.782;6.818;2023-06-22T00:11:30;5.75;;;2.88;;
72891;SDS011;61032;50.782;6.818;2023-06-22T00:12:33;5.80;;;3.22;;
72891;SDS011;61032;50.782;6.818;2023-06-22T00:13:33;4.28;;;2.65;;
72891;SDS011;61032;50.782;6.818;2023-06-22T00:14:33;4.80;;;2.35;;
72891;SDS011;61032;50.782;6.818;2023-06-22T00:15:34;6.60;;;3.35;;
72891;SDS011;61032;50.782;6.818;2023-06-22T00:16:35;4.65;;;2.85;;
72891;SDS011;61032;50.782;6.818;2023-06-22T00:17:35;3.60;;;3.08;;
72891;SDS011;61032;50.782;6.818;2023-06-22T00:18:36;3.85;;;2.67;;
72891;SDS011;61032;50.782;6.818;2023-06-22T00:19:36;5.05;;;2.55;;
72891;SDS011;61032;50.782;6.818;2023-06-22T00:20:41;4.90;;;2.50;;
72891;SDS011;61032;50.782;6.818;2023-06-22T00:21:41;3.60;;;3.03;;
72891;SDS011;61032;50.782;6.818;2023-06-22T00:22:43;5.05;;;2.60;;
72891;SDS011;61032;50.782;6.818;2023-06-22T00:23:43;4.55;;;2.65;;
72891;SDS011;61032;50.782;6.818;2023-06-22T00:24:44;4.15;;;2.17;;
72891;SDS011;61032;50.782;6.818;2023-06-22T00:25:44;3.90;;;2.60;;
72891;SDS011;61032;50.782;6.818;2023-06-22T00:26:44;3.55;;;2.78;;
72891;SDS011;61032;50.782;6.818;2023-06-22T00:27:44;3.10;;;2.20;;
72891;SDS011;61032;50.782;6.818;2023-06-22T00:28:45;3.70;;;2.70;;
72891;SDS011;61032;50.782;6.818;2023-06-22T00:29:45;3.55;;;2.20;;
72891;SDS011;61032;50.782;6.818;2023-06-22T00:30:45;3.25;;;2.40;;
72891;SDS011;61032;50.782;6.818;2023-06-22T00:31:46;6.60;;;2.58;;
72891;SDS011;61032;50.782;6.818;2023-06-22T00:32:46;4.50;;;2.95;;
72891;SDS011;61032;50.782;6.818;2023-06-22T00:33:46;4.15;;;2.55;;
72891;SDS011;61032;50.782;6.818;2023-06-22T00:34:47;4.43;;;3.17;;
72891;SDS011;61032;50.782;6.818;2023-06-22T00:35:48;5.13;;;3.28;;
72891;SDS011;61032;50.782;6.818;2023-06-22T00:36:48;4.20;;;2.72;;
72891;SDS011;61032;50.782;6.818;2023-06-22T00:37:48;8.25;;;3.13;;
72891;SDS011;61032;50.782;6.818;2023-06-22T00:38:49;5.25;;;2.90;;
72891;SDS011;61032;50.782;6.818;2023-06-22T00:39:51;4.45;;;3.13;;
72891;SDS011;61032;50.782;6.818;2023-06-22T00:40:51;3.90;;;2.72;;
72891;SDS011;61032;50.782;6.818;2023-06-22T00:41:52;5.55;;;2.80;;
72891;SDS011;61032;50.782;6.818;2023-06-22T00:42:52;5.50;;;2.97;;
72891;SDS011;61032;50.782;6.818;2023-06-22T00:43:52;4.15;;;2.67;;
72891;SDS011;61032;50.782;6.818;2023-06-22T00:44:52;5.43;;;3.10;;
72891;SDS011;61032;50.782;6.818;2023-06-22T00:45:54;4.93;;;3.15;;
72891;SDS011;61032;50.782;6.818;2023-06-22T00:46:56;4.50;;;2.70;;
72891;SDS011;61032;50.782;6.818;2023-06-22T00:47:57;3.92;;;2.90;;
72891;SDS011;61032;50.782;6.818;2023-06-22T00:48:58;5.22;;;2.80;;
72891;SDS011;61032;50.782;6.818;2023-06-22T00:49:59;5.13;;;3.50;;
72891;SDS011;61032;50.782;6.818;2023-06-22T00:51:00;4.18;;;2.75;;
72891;SDS011;61032;50.782;6.818;2023-06-22T00:52:01;4.25;;;3.20;;
72891;SDS011;61032;50.782;6.818;2023-06-22T00:53:06;4.90;;;2.85;;
72891;SDS011;61032;50.782;6.818;2023-06-22T00:54:08;4.75;;;2.72;;
72891;SDS011;61032;50.782;6.818;2023-06-22T00:55:08;5.32;;;2.80;;
72891;SDS011;61032;50.782;6.818;2023-06-22T00:56:09;4.63;;;2.40;;
72891;SDS011;61032;50.782;6.818;2023-06-22T00:57:13;3.80;;;2.53;;
72891;SDS011;61032;50.782;6.818;2023-06-22T00:58:15;4.10;;;3.05;;
72891;SDS011;61032;50.782;6.818;2023-06-22T00:59:16;3.78;;;2.70;;
72891;SDS011;61032;50.782;6.818;2023-06-22T01:00:17;4.03;;;2.40;;
72891;SDS011;61032;50.782;6.818;2023-06-22T01:01:19;4.32;;;2.88;;
72891;SDS011;61032;50.782;6.818;2023-06-22T01:02:23;3.70;;;2.50;;
72891;SDS011;61032;50.782;6.818;2023-06-22T01:03:23;4.95;;;2.40;;
72891;SDS011;61032;50.782;6.818;2023-06-22T01:04:24;4.28;;;2.78;;
72891;SDS011;61032;50.782;6.818;2023-06-22T01:05:34;6.72;;;2.67;;
72891;SDS011;61032;50.782;6.818;2023-06-22T01:07:49;3.13;;;2.42;;
72891;SDS011;61032;50.782;6.818;2023-06-22T01:09:19;6.72;;;2.85;;
72891;SDS011;61032;50.782;6.818;2023-06-22T01:10:30;4.75;;;3.22;;
72891;SDS011;61032;50.782;6.818;2023-06-22T01:11:40;3.83;;;2.88;;
72891;SDS011;61032;50.782;6.818;2023-06-22T01:12:47;4.88;;;2.72;;
72891;SDS011;61032;50.782;6.818;2023-06-22T01:13:57;3.70;;;2.38;;
72891;SDS011;61032;50.782;6.818;2023-06-22T01:15:16;5.70;;;2.95;;
72891;SDS011;61032;50.782;6.818;2023-06-22T01:16:23;4.90;;;2.63;;
72891;SDS011;61032;50.782;6.818;2023-06-22T01:17:27;3.38;;;2.40;;
72891;SDS011;61032;50.782;6.818;2023-06-22T01:18:29;4.95;;;3.10;;
72891;SDS011;61032;50.782;6.818;2023-06-22T01:19:46;4.85;;;2.78;;
72891;SDS011;61032;50.782;6.818;2023-06-22T01:20:56;4.30;;;3.20;;
72891;SDS011;61032;50.782;6.818;2023-06-22T01:23:05;3.65;;;2.40;;
72891;SDS011;61032;50.782;6.818;2023-06-22T01:24:17;3.60;;;2.60;;
72891;SDS011;61032;50.782;6.818;2023-06-22T01:25:30;4.90;;;3.28;;
72891;SDS011;61032;50.782;6.818;2023-06-22T01:26:38;4.95;;;3.50;;
72891;SDS011;61032;50.782;6.818;2023-06-22T01:27:52;5.20;;;3.65;;
72891;SDS011;61032;50.782;6.818;2023-06-22T01:28:57;6.82;;;4.07;;
72891;SDS011;61032;50.782;6.818;2023-06-22T01:29:59;6.60;;;4.03;;
72891;SDS011;61032;50.782;6.818;2023-06-22T01:31:01;4.63;;;3.30;;
72891;SDS011;61032;50.782;6.818;2023-06-22T01:32:05;5.80;;;3.60;;
72891;SDS011;61032;50.782;6.818;2023-06-22T01:33:06;5.20;;;3.28;;
72891;SDS011;61032;50.782;6.818;2023-06-22T01:34:10;5.47;;;3.78;;
72891;SDS011;61032;50.782;6.818;2023-06-22T01:35:12;5.80;;;3.60;;
72891;SDS011;61032;50.782;6.818;2023-06-22T01:36:14;4.47;;;3.38;;
72891;SDS011;61032;50.782;6.818;2023-06-22T01:37:17;5.50;;;3.92;;
72891;SDS011;61032;50.782;6.818;2023-06-22T01:38:17;6.35;;;3.97;;
72891;SDS011;61032;50.782;6.818;2023-06-22T01:39:18;6.05;;;3.63;;
72891;SDS011;61032;50.782;6.818;2023-06-22T01:40:19;5.25;;;3.78;;
72891;SDS011;61032;50.782;6.818;2023-06-22T01:41:20;4.82;;;3.10;;
72891;SDS011;61032;50.782;6.818;2023-06-22T01:42:25;5.20;;;3.20;;
72891;SDS011;61032;50.782;6.818;2023-06-22T01:43:26;4.95;;;3.30;;
72891;SDS011;61032;50.782;6.818;2023-06-22T01:44:27;5.72;;;4.55;;
72891;SDS011;61032;50.782;6.818;2023-06-22T01:45:28;5.53;;;3.33;;
72891;SDS011;61032;50.782;6.818;2023-06-22T01:46:29;7.10;;;4.30;;
72891;SDS011;61032;50.782;6.818;2023-06-22T01:47:29;5.85;;;3.80;;
72891;SDS011;61032;50.782;6.818;2023-06-22T01:48:30;4.50;;;3.35;;
72891;SDS011;61032;50.782;6.818;2023-06-22T01:49:31;5.05;;;3.30;;
72891;SDS011;61032;50.782;6.818;2023-06-22T01:50:31;6.75;;;3.65;;
72891;SDS011;61032;50.782;6.818;2023-06-22T01:51:32;4.88;;;3.58;;
72891;SDS011;61032;50.782;6.818;2023-06-22T01:52:33;6.00;;;3.75;;
72891;SDS011;61032;50.782;6.818;2023-06-22T01:53:34;5.07;;;3.50;;
72891;SDS011;61032;50.782;6.818;2023-06-22T01:54:34;5.95;;;4.30;;
72891;SDS011;61032;50.782;6.818;2023-06-22T01:55:34;4.63;;;3.35;;
72891;SDS011;61032;50.782;6.818;2023-06-22T01:56:35;5.60;;;3.22;;
72891;SDS011;61032;50.782;6.818;2023-06-22T01:57:35;4.95;;;3.30;;
72891;SDS011;61032;50.782;6.818;2023-06-22T01:58:36;6.95;;;3.72;;
72891;SDS011;61032;50.782;6.818;2023-06-22T02:01:10;5.78;;;3.33;;
72891;SDS011;61032;50.782;6.818;2023-06-22T02:02:14;5.90;;;3.20;;
72891;SDS011;61032;50.782;6.818;2023-06-22T02:03:18;4.72;;;3.40;;
72891;SDS011;61032;50.782;6.818;2023-06-22T02:04:24;5.30;;;3.40;;
72891;SDS011;61032;50.782;6.818;2023-06-22T02:05:28;6.60;;;3.08;;
72891;SDS011;61032;50.782;6.818;2023-06-22T02:06:37;6.20;;;3.33;;
72891;SDS011;61032;50.782;6.818;2023-06-22T02:07:45;5.93;;;3.08;;
72891;SDS011;61032;50.782;6.818;2023-06-22T02:08:49;6.53;;;3.70;;
72891;SDS011;61032;50.782;6.818;2023-06-22T02:09:54;6.18;;;3.28;;
72891;SDS011;61032;50.782;6.818;2023-06-22T02:10:56;4.97;;;3.35;;
72891;SDS011;61032;50.782;6.818;2023-06-22T02:11:59;6.03;;;3.78;;
72891;SDS011;61032;50.782;6.818;2023-06-22T02:13:04;5.38;;;3.50;;
72891;SDS011;61032;50.782;6.818;2023-06-22T02:14:06;5.75;;;3.95;;
72891;SDS011;61032;50.782;6.818;2023-06-22T02:15:08;5.68;;;3.28;;
72891;SDS011;61032;50.782;6.818;2023-06-22T02:16:10;7.88;;;3.40;;
72891;SDS011;61032;50.782;6.818;2023-06-22T02:17:11;6.50;;;3.47;;
72891;SDS011;61032;50.782;6.818;2023-06-22T02:18:13;4.70;;;3.15;;
72891;SDS011;61032;50.782;6.818;2023-06-22T02:19:13;3.97;;;2.97;;
72891;SDS011;61032;50.782;6.818;2023-06-22T02:20:18;5.90;;;3.78;;
72891;SDS011;61032;50.782;6.818;2023-06-22T02:21:19;4.82;;;3.00;;
72891;SDS011;61032;50.782;6.818;2023-06-22T02:22:20;5.90;;;3.53;;
72891;SDS011;61032;50.782;6.818;2023-06-22T02:23:20;4.70;;;3.03;;
72891;SDS011;61032;50.782;6.818;2023-06-22T02:24:20;5.00;;;3.40;;
72891;SDS011;61032;50.782;6.818;2023-06-22T02:25:23;5.68;;;3.20;;
72891;SDS011;61032;50.782;6.818;2023-06-22T02:26:25;5.25;;;3.78;;
72891;SDS011;61032;50.782;6.818;2023-06-22T02:27:26;5.30;;;3.88;;
72891;SDS011;61032;50.782;6.818;2023-06-22T02:28:26;6.68;;;3.28;;
72891;SDS011;61032;50.782;6.818;2023-06-22T02:29:26;4.25;;;3.63;;
72891;SDS011;61032;50.782;6.818;2023-06-22T02:30:27;6.13;;;3.38;;
72891;SDS011;61032;50.782;6.818;2023-06-22T02:31:27;3.55;;;2.80;;
72891;SDS011;61032;50.782;6.818;2023-06-22T02:32:30;4.80;;;2.67;;
72891;SDS011;61032;50.782;6.818;2023-06-22T02:33:34;4.63;;;2.97;;
72891;SDS011;61032;50.782;6.818;2023-06-22T02:34:34;3.53;;;3.03;;
72891;SDS011;61032;50.782;6.818;2023-06-22T02:35:36;6.53;;;3.45;;
72891;SDS011;61032;50.782;6.818;2023-06-22T02:36:37;6.38;;;3.20;;
72891;SDS011;61032;50.782;6.818;2023-06-22T02:37:37;4.53;;;2.60;;
72891;SDS011;61032;50.782;6.818;2023-06-22T02:38:43;5.00;;;3.25;;
72891;SDS011;61032;50.782;6.818;2023-06-22T02:39:48;6.38;;;3.22;;
72891;SDS011;61032;50.782;6.818;2023-06-22T02:40:48;4.38;;;2.65;;
72891;SDS011;61032;50.782;6.818;2023-06-22T02:41:52;3.47;;;2.58;;
72891;SDS011;61032;50.782;6.818;2023-06-22T02:42:53;4.55;;;3.00;;
72891;SDS011;61032;50.782;6.818;2023-06-22T02:43:53;4.53;;;3.10;;
72891;SDS011;61032;50.782;6.818;2023-06-22T02:44:54;5.25;;;3.28;;
72891;SDS011;61032;50.782;6.818;2023-06-22T02:45:54;4.18;;;2.83;;
72891;SDS011;61032;50.782;6.818;2023-06-22T02:46:55;6.78;;;3.45;;
72891;SDS011;61032;50.782;6.818;2023-06-22T02:47:55;6.30;;;2.72;;
72891;SDS011;61032;50.782;6.818;2023-06-22T02:48:56;5.90;;;2.65;;
72891;SDS011;61032;50.782;6.818;2023-06-22T02:49:56;5.50;;;2.75;;
72891;SDS011;61032;50.782;6.818;2023-06-22T02:50:57;3.95;;;2.60;;
72891;SDS011;61032;50.782;6.818;2023-06-22T02:51:57;5.70;;;2.95;;
72891;SDS011;61032;50.782;6.818;2023-06-22T02:52:57;5.13;;;2.97;;
72891;SDS011;61032;50.782;6.818;2023-06-22T02:53:58;4.22;;;3.05;;
72891;SDS011;61032;50.782;6.818;2023-06-22T02:54:58;7.45;;;2.97;;
72891;SDS011;61032;50.782;6.818;2023-06-22T02:55:58;5.43;;;3.03;;
72891;SDS011;61032;50.782;6.818;2023-06-22T02:57:01;6.03;;;3.20;;
72891;SDS011;61032;50.782;6.818;2023-06-22T02:58:04;7.50;;;3.60;;
72891;SDS011;61032;50.782;6.818;2023-06-22T02:59:04;3.75;;;2.97;;
72891;SDS011;61032;50.782;6.818;2023-06-22T03:00:05;5.53;;;3.17;;
72891;SDS011;61032;50.782;6.818;2023-06-22T03:01:16;5.72;;;3.05;;
72891;SDS011;61032;50.782;6.818;2023-06-22T03:02:17;5.40;;;3.28;;
72891;SDS011;61032;50.782;6.818;2023-06-22T03:03:18;4.03;;;2.78;;
72891;SDS011;61032;50.782;6.818;2023-06-22T03:04:19;5.22;;;3.38;;
72891;SDS011;61032;50.782;6.818;2023-06-22T03:05:19;5.72;;;3.33;;
72891;SDS011;61032;50.782;6.818;2023-06-22T03:06:20;5.57;;;3.35;;
72891;SDS011;61032;50.782;6.818;2023-06-22T03:07:23;9.43;;;3.60;;
72891;SDS011;61032;50.782;6.818;2023-06-22T03:08:23;5.13;;;3.03;;
72891;SDS011;61032;50.782;6.818;2023-06-22T03:09:24;5.43;;;3.53;;
72891;SDS011;61032;50.782;6.818;2023-06-22T03:10:24;6.50;;;2.90;;
72891;SDS011;61032;50.782;6.818;2023-06-22T03:11:24;3.78;;;3.13;;
72891;SDS011;61032;50.782;6.818;2023-06-22T03:12:25;9.90;;;4.15;;
72891;SDS011;61032;50.782;6.818;2023-06-22T03:13:26;7.07;;;3.67;;
72891;SDS011;61032;50.782;6.818;2023-06-22T03:14:27;6.85;;;3.60;;
72891;SDS011;61032;50.782;6.818;2023-06-22T03:15:27;9.35;;;3.85;;
72891;SDS011;61032;50.782;6.818;2023-06-22T03:16:29;5.75;;;3.00;;
72891;SDS011;61032;50.782;6.818;2023-06-22T03:17:29;5.85;;;2.88;;
72891;SDS011;61032;50.782;6.818;2023-06-22T03:18:30;6.00;;;3.40;;
72891;SDS011;61032;50.782;6.818;2023-06-22T03:19:30;6.50;;;3.80;;
72891;SDS011;61032;50.782;6.818;2023-06-22T03:20:31;4.38;;;3.50;;
72891;SDS011;61032;50.782;6.818;2023-06-22T03:21:33;6.80;;;4.05;;
72891;SDS011;61032;50.782;6.818;2023-06-22T03:22:33;5.05;;;3.72;;
72891;SDS011;61032;50.782;6.818;2023-06-22T03:23:34;5.95;;;3.17;;
72891;SDS011;61032;50.782;6.818;2023-06-22T03:24:34;5.75;;;2.90;;
72891;SDS011;61032;50.782;6.818;2023-06-22T03:25:34;6.47;;;4.10;;
72891;SDS011;61032;50.782;6.818;2023-06-22T03:26:35;8.05;;;3.20;;
72891;SDS011;61032;50.782;6.818;2023-06-22T03:27:36;7.05;;;3.28;;
72891;SDS011;61032;50.782;6.818;2023-06-22T03:28:37;6.55;;;3.25;;
72891;SDS011;61032;50.782;6.818;2023-06-22T03:29:37;6.65;;;3.15;;
72891;SDS011;61032;50.782;6.818;2023-06-22T03:30:38;5.50;;;3.00;;
72891;SDS011;61032;50.782;6.818;2023-06-22T03:31:38;9.57;;;3.10;;
72891;SDS011;61032;50.782;6.818;2023-06-22T03:32:39;5.65;;;3.50;;
72891;SDS011;61032;50.782;6.818;2023-06-22T03:33:39;5.72;;;3.30;;
72891;SDS011;61032;50.782;6.818;2023-06-22T03:34:39;6.47;;;3.28;;
72891;SDS011;61032;50.782;6.818;2023-06-22T03:35:39;5.38;;;3.10;;
72891;SDS011;61032;50.782;6.818;2023-06-22T03:36:40;6.13;;;3.30;;
72891;SDS011;61032;50.782;6.818;2023-06-22T03:37:40;7.55;;;4.30;;
72891;SDS011;61032;50.782;6.818;2023-06-22T03:38:40;6.00;;;3.65;;
72891;SDS011;61032;50.782;6.818;2023-06-22T03:39:41;5.00;;;3.92;;
72891;SDS011;61032;50.782;6.818;2023-06-22T03:40:42;8.15;;;4.13;;
72891;SDS011;61032;50.782;6.818;2023-06-22T03:41:42;4.35;;;3.30;;
72891;SDS011;61032;50.782;6.818;2023-06-22T03:42:42;5.25;;;3.08;;
72891;SDS011;61032;50.782;6.818;2023-06-22T03:43:43;6.28;;;3.90;;
72891;SDS011;61032;50.782;6.818;2023-06-22T03:44:43;5.30;;;3.63;;
72891;SDS011;61032;50.782;6.818;2023-06-22T03:45:44;8.00;;;3.97;;
72891;SDS011;61032;50.782;6.818;2023-06-22T03:46:45;6.35;;;3.70;;
72891;SDS011;61032;50.782;6.818;2023-06-22T03:47:45;7.95;;;4.05;;
72891;SDS011;61032;50.782;6.818;2023-06-22T03:48:46;9.25;;;4.40;;
72891;SDS011;61032;50.782;6.818;2023-06-22T03:49:46;6.93;;;3.85;;
72891;SDS011;61032;50.782;6.818;2023-06-22T03:50:46;5.13;;;3.22;;
72891;SDS011;61032;50.782;6.818;2023-06-22T03:51:47;7.80;;;3.35;;
72891;SDS011;61032;50.782;6.818;2023-06-22T03:52:47;7.40;;;3.90;;
72891;SDS011;61032;50.782;6.818;2023-06-22T03:53:47;10.48;;;4.25;;
72891;SDS011;61032;50.782;6.818;2023-06-22T03:54:48;5.55;;;3.10;;
72891;SDS011;61032;50.782;6.818;2023-06-22T03:55:51;4.72;;;3.28;;
72891;SDS011;61032;50.782;6.818;2023-06-22T03:56:52;6.38;;;3.20;;
72891;SDS011;61032;50.782;6.818;2023-06-22T03:57:52;9.05;;;3.90;;
72891;SDS011;61032;50.782;6.818;2023-06-22T03:58:55;8.07;;;3.38;;
72891;SDS011;61032;50.782;6.818;2023-06-22T03:59:59;6.20;;;3.33;;
72891;SDS011;61032;50.782;6.818;2023-06-22T04:00:59;6.28;;;3.45;;
72891;SDS011;61032;50.782;6.818;2023-06-22T04:02:00;5.20;;;3.28;;
72891;SDS011;61032;50.782;6.818;2023-06-22T04:03:00;5.97;;;2.70;;
72891;SDS011;61032;50.782;6.818;2023-06-22T04:04:00;7.65;;;3.55;;
72891;SDS011;61032;50.782;6.818;2023-06-22T04:05:01;5.85;;;3.40;;
72891;SDS011;61032;50.782;6.818;2023-06-22T04:06:01;7.63;;;3.70;;
72891;SDS011;61032;50.782;6.818;2023-06-22T04:07:01;6.47;;;3.22;;
72891;SDS011;61032;50.782;6.818;2023-06-22T04:08:02;4.47;;;3.30;;
72891;SDS011;61032;50.782;6.818;2023-06-22T04:09:02;6.75;;;3.13;;
72891;SDS011;61032;50.782;6.818;2023-06-22T04:10:03;6.03;;;3.60;;
72891;SDS011;61032;50.782;6.818;2023-06-22T04:11:04;5.60;;;3.45;;
72891;SDS011;61032;50.782;6.818;2023-06-22T04:12:05;6.07;;;3.45;;
72891;SDS011;61032;50.782;6.818;2023-06-22T04:13:06;5.95;;;3.63;;
72891;SDS011;61032;50.782;6.818;2023-06-22T04:14:07;6.38;;;3.42;;
72891;SDS011;61032;50.782;6.818;2023-06-22T04:15:14;5.93;;;3.78;;
72891;SDS011;61032;50.782;6.818;2023-06-22T04:16:15;5.25;;;3.35;;
72891;SDS011;61032;50.782;6.818;2023-06-22T04:17:15;8.32;;;4.30;;
72891;SDS011;61032;50.782;6.818;2023-06-22T04:18:17;7.13;;;3.00;;
72891;SDS011;61032;50.782;6.818;2023-06-22T04:19:18;6.68;;;4.28;;
72891;SDS011;61032;50.782;6.818;2023-06-22T04:20:18;5.68;;;3.45;;
72891;SDS011;61032;50.782;6.818;2023-06-22T04:21:18;6.60;;;3.90;;
72891;SDS011;61032;50.782;6.818;2023-06-22T04:22:22;6.97;;;3.40;;
72891;SDS011;61032;50.782;6.818;2023-06-22T04:23:22;8.65;;;3.95;;
72891;SDS011;61032;50.782;6.818;2023-06-22T04:24:22;5.68;;;4.25;;
72891;SDS011;61032;50.782;6.818;2023-06-22T04:25:23;4.72;;;3.20;;
72891;SDS011;61032;50.782;6.818;2023-06-22T04:26:23;9.57;;;4.00;;
72891;SDS011;61032;50.782;6.818;2023-06-22T04:27:23;10.15;;;3.35;;
72891;SDS011;61032;50.782;6.818;2023-06-22T04:28:24;12.00;;;4.53;;
72891;SDS011;61032;50.782;6.818;2023-06-22T04:29:24;11.45;;;3.78;;
72891;SDS011;61032;50.782;6.818;2023-06-22T04:30:28;10.18;;;4.75;;
72891;SDS011;61032;50.782;6.818;2023-06-22T04:31:31;8.45;;;3.60;;
72891;SDS011;61032;50.782;6.818;2023-06-22T04:32:36;9.85;;;3.58;;
72891;SDS011;61032;50.782;6.818;2023-06-22T04:33:36;8.80;;;4.57;;
72891;SDS011;61032;50.782;6.818;2023-06-22T04:34:40;9.65;;;3.83;;
72891;SDS011;61032;50.782;6.818;2023-06-22T04:35:41;7.88;;;3.17;;
72891;SDS011;61032;50.782;6.818;2023-06-22T04:36:42;6.95;;;3.72;;
72891;SDS011;61032;50.782;6.818;2023-06-22T04:37:42;6.88;;;3.38;;
72891;SDS011;61032;50.782;6.818;2023-06-22T04:38:42;7.93;;;3.63;;
72891;SDS011;61032;50.782;6.818;2023-06-22T04:39:44;7.00;;;3.53;;
72891;SDS011;61032;50.782;6.818;2023-06-22T04:40:44;7.35;;;4.60;;
72891;SDS011;61032;50.782;6.818;2023-06-22T04:41:45;8.18;;;4.10;;
72891;SDS011;61032;50.782;6.818;2023-06-22T04:42:45;7.97;;;4.13;;
72891;SDS011;61032;50.782;6.818;2023-06-22T04:43:52;6.75;;;3.72;;
72891;SDS011;61032;50.782;6.818;2023-06-22T04:44:53;7.90;;;3.95;;
72891;SDS011;61032;50.782;6.818;2023-06-22T04:45:54;7.80;;;3.60;;
72891;SDS011;61032;50.782;6.818;2023-06-22T04:46:57;10.35;;;4.25;;
72891;SDS011;61032;50.782;6.818;2023-06-22T04:48:03;6.72;;;3.58;;
72891;SDS011;61032;50.782;6.818;2023-06-22T04:49:04;11.45;;;4.00;;
72891;SDS011;61032;50.782;6.818;2023-06-22T04:50:12;7.55;;;3.92;;
72891;SDS011;61032;50.782;6.818;2023-06-22T04:51:12;6.90;;;4.05;;
72891;SDS011;61032;50.782;6.818;2023-06-22T04:52:13;9.10;;;3.67;;
72891;SDS011;61032;50.782;6.818;2023-06-22T04:53:13;8.30;;;4.20;;
72891;SDS011;61032;50.782;6.818;2023-06-22T04:54:14;5.43;;;3.40;;
72891;SDS011;61032;50.782;6.818;2023-06-22T04:55:14;8.95;;;4.60;;
72891;SDS011;61032;50.782;6.818;2023-06-22T04:56:18;8.40;;;3.65;;
72891;SDS011;61032;50.782;6.818;2023-06-22T04:57:18;7.80;;;3.67;;
72891;SDS011;61032;50.782;6.818;2023-06-22T04:58:18;7.20;;;3.70;;
72891;SDS011;61032;50.782;6.818;2023-06-22T04:59:21;11.38;;;3.97;;
72891;SDS011;61032;50.782;6.818;2023-06-22T05:00:22;8.50;;;4.60;;
72891;SDS011;61032;50.782;6.818;2023-06-22T05:01:23;8.50;;;4.50;;
72891;SDS011;61032;50.782;6.818;2023-06-22T05:02:23;11.32;;;4.10;;
72891;SDS011;61032;50.782;6.818;2023-06-22T05:03:27;8.10;;;3.83;;
72891;SDS011;61032;50.782;6.818;2023-06-22T05:04:28;6.28;;;3.42;;
72891;SDS011;61032;50.782;6.818;2023-06-22T05:05:32;6.95;;;3.70;;
72891;SDS011;61032;50.782;6.818;2023-06-22T05:06:33;6.40;;;3.67;;
72891;SDS011;61032;50.782;6.818;2023-06-22T05:07:33;6.80;;;3.72;;
72891;SDS011;61032;50.782;6.818;2023-06-22T05:08:34;8.75;;;4.60;;
72891;SDS011;61032;50.782;6.818;2023-06-22T05:09:35;9.05;;;4.03;;
72891;SDS011;61032;50.782;6.818;2023-06-22T05:10:35;6.82;;;3.72;;
72891;SDS011;61032;50.782;6.818;2023-06-22T05:11:35;9.95;;;3.90;;
72891;SDS011;61032;50.782;6.818;2023-06-22T05:12:36;9.02;;;4.28;;
72891;SDS011;61032;50.782;6.818;2023-06-22T05:13:36;9.32;;;5.13;;
72891;SDS011;61032;50.782;6.818;2023-06-22T05:14:36;7.95;;;4.25;;
72891;SDS011;61032;50.782;6.818;2023-06-22T05:15:37;7.82;;;4.25;;
72891;SDS011;61032;50.782;6.818;2023-06-22T05:16:40;7.88;;;3.83;;
72891;SDS011;61032;50.782;6.818;2023-06-22T05:17:42;5.97;;;4.45;;
72891;SDS011;61032;50.782;6.818;2023-06-22T05:18:45;9.60;;;4.50;;
72891;SDS011;61032;50.782;6.818;2023-06-22T05:19:45;7.75;;;3.88;;
72891;SDS011;61032;50.782;6.818;2023-06-22T05:20:48;9.25;;;4.85;;
72891;SDS011;61032;50.782;6.818;2023-06-22T05:21:48;6.97;;;3.60;;
72891;SDS011;61032;50.782;6.818;2023-06-22T05:22:48;7.50;;;3.92;;
72891;SDS011;61032;50.782;6.818;2023-06-22T05:23:49;11.75;;;4.65;;
72891;SDS011;61032;50.782;6.818;2023-06-22T05:24:49;9.20;;;4.82;;
72891;SDS011;61032;50.782;6.818;2023-06-22T05:25:50;8.40;;;4.78;;
72891;SDS011;61032;50.782;6.818;2023-06-22T05:26:51;8.60;;;4.05;;
72891;SDS011;61032;50.782;6.818;2023-06-22T05:27:51;9.32;;;3.53;;
72891;SDS011;61032;50.782;6.818;2023-06-22T05:28:52;9.68;;;4.30;;
72891;SDS011;61032;50.782;6.818;2023-06-22T05:29:52;7.22;;;3.80;;
72891;SDS011;61032;50.782;6.818;2023-06-22T05:30:54;10.52;;;4.10;;
72891;SDS011;61032;50.782;6.818;2023-06-22T05:31:54;11.18;;;4.38;;
72891;SDS011;61032;50.782;6.818;2023-06-22T05:32:54;7.53;;;4.47;;
72891;SDS011;61032;50.782;6.818;2023-06-22T05:33:55;8.80;;;4.22;;
72891;SDS011;61032;50.782;6.818;2023-06-22T05:34:56;9.43;;;4.35;;
72891;SDS011;61032;50.782;6.818;2023-06-22T05:35:56;10.48;;;4.72;;
72891;SDS011;61032;50.782;6.818;2023-06-22T05:36:56;13.50;;;4.25;;
72891;SDS011;61032;50.782;6.818;2023-06-22T05:37:58;7.93;;;4.30;;
72891;SDS011;61032;50.782;6.818;2023-06-22T05:38:59;10.68;;;4.43;;
72891;SDS011;61032;50.782;6.818;2023-06-22T05:39:59;9.38;;;3.72;;
72891;SDS011;61032;50.782;6.818;2023-06-22T05:40:59;11.23;;;4.55;;
72891;SDS011;61032;50.782;6.818;2023-06-22T05:42:00;7.88;;;4.75;;
72891;SDS011;61032;50.782;6.818;2023-06-22T05:43:00;7.85;;;4.07;;
72891;SDS011;61032;50.782;6.818;2023-06-22T05:44:01;9.35;;;4.88;;
72891;SDS011;61032;50.782;6.818;2023-06-22T05:45:02;7.32;;;4.30;;
72891;SDS011;61032;50.782;6.818;2023-06-22T05:46:03;6.60;;;4.45;;
72891;SDS011;61032;50.782;6.818;2023-06-22T05:47:04;6.28;;;4.55;;
72891;SDS011;61032;50.782;6.818;2023-06-22T05:48:04;8.60;;;4.13;;
72891;SDS011;61032;50.782;6.818;2023-06-22T05:49:05;7.55;;;4.05;;
72891;SDS011;61032;50.782;6.818;2023-06-22T05:50:05;10.57;;;5.18;;
72891;SDS011;61032;50.782;6.818;2023-06-22T05:51:08;8.05;;;4.25;;
72891;SDS011;61032;50.782;6.818;2023-06-22T05:52:08;5.50;;;3.78;;
72891;SDS011;61032;50.782;6.818;2023-06-22T05:53:08;8.13;;;3.90;;
72891;SDS011;61032;50.782;6.818;2023-06-22T05:54:09;8.80;;;4.15;;
72891;SDS011;61032;50.782;6.818;2023-06-22T05:55:10;7.20;;;3.78;;
72891;SDS011;61032;50.782;6.818;2023-06-22T05:56:10;7.72;;;4.80;;
72891;SDS011;61032;50.782;6.818;2023-06-22T05:57:10;6.43;;;4.03;;
72891;SDS011;61032;50.782;6.818;2023-06-22T05:58:10;8.13;;;4.53;;
72891;SDS011;61032;50.782;6.818;2023-06-22T05:59:11;6.22;;;4.53;;
72891;SDS011;61032;50.782;6.818;2023-06-22T06:00:12;9.40;;;4.97;;
72891;SDS011;61032;50.782;6.818;2023-06-22T06:01:13;9.27;;;4.72;;
72891;SDS011;61032;50.782;6.818;2023-06-22T06:03:15;6.18;;;4.00;;
72891;SDS011;61032;50.782;6.818;2023-06-22T06:04:17;8.20;;;3.67;;
72891;SDS011;61032;50.782;6.818;2023-06-22T06:05:18;10.07;;;4.80;;
72891;SDS011;61032;50.782;6.818;2023-06-22T06:06:19;7.68;;;4.38;;
72891;SDS011;61032;50.782;6.818;2023-06-22T06:07:28;6.80;;;5.00;;
72891;SDS011;61032;50.782;6.818;2023-06-22T06:08:29;8.70;;;4.30;;
72891;SDS011;61032;50.782;6.818;2023-06-22T06:09:30;9.10;;;4.07;;
72891;SDS011;61032;50.782;6.818;2023-06-22T06:10:31;9.35;;;4.10;;
72891;SDS011;61032;50.782;6.818;2023-06-22T06:11:32;8.38;;;4.80;;
72891;SDS011;61032;50.782;6.818;2023-06-22T06:12:33;9.40;;;4.82;;
72891;SDS011;61032;50.782;6.818;2023-06-22T06:13:33;8.32;;;4.82;;
72891;SDS011;61032;50.782;6.818;2023-06-22T06:14:33;11.27;;;4.80;;
72891;SDS011;61032;50.782;6.818;2023-06-22T06:15:34;7.38;;;5.53;;
72891;SDS011;61032;50.782;6.818;2023-06-22T06:16:34;7.95;;;4.47;;